sensor_id;sensor_type;location;lat;lon;timestamp;pressure;altitude;pressure_sealevel;temperature;humidity
34034;BME280;63481;52.588;22.472;2022-11-20T00:00:17;100303.17;;;-7.64;90.66
34034;BME280;63481;52.588;22.472;2022-11-20T00:00:50;100312.13;;;-7.62;90.63
34034;BME280;63481;52.588;22.472;2022-11-20T00:01:25;100303.53;;;-7.63;90.59
34034;BME280;63481;52.588;22.472;2022-11-20T00:01:57;100312.13;;;-7.62;90.58
34034;BME280;63481;52.588;22.472;2022-11-20T00:02:29;100304.75;;;-7.61;90.58
34034;BME280;63481;52.588;22.472;2022-11-20T00:03:01;100307.80;;;-7.62;90.61
34034;BME280;63481;52.588;22.472;2022-11-20T00:03:33;100306.50;;;-7.62;90.58
34034;BME280;63481;52.588;22.472;2022-11-20T00:04:05;100305.55;;;-7.61;90.57
34034;BME280;63481;52.588;22.472;2022-11-20T00:04:37;100302.52;;;-7.60;90.57
34034;BME280;63481;52.588;22.472;2022-11-20T00:05:09;100299.57;;;-7.61;90.55
34034;BME280;63481;52.588;22.472;2022-11-20T00:05:41;100302.16;;;-7.61;90.55
34034;BME280;63481;52.588;22.472;2022-11-20T00:06:15;100307.62;;;-7.59;90.52
34034;BME280;63481;52.588;22.472;2022-11-20T00:06:47;100302.44;;;-7.59;90.50
34034;BME280;63481;52.588;22.472;2022-11-20T00:07:19;100304.75;;;-7.61;90.49
34034;BME280;63481;52.588;22.472;2022-11-20T00:07:51;100308.14;;;-7.61;90.49
34034;BME280;63481;52.588;22.472;2022-11-20T00:08:22;100302.05;;;-7.60;90.49
34034;BME280;63481;52.588;22.472;2022-11-20T00:08:58;100306.22;;;-7.57;90.46
34034;BME280;63481;52.588;22.472;2022-11-20T00:09:31;100300.58;;;-7.57;90.47
34034;BME280;63481;52.588;22.472;2022-11-20T00:10:03;100301.87;;;-7.57;90.45
34034;BME280;63481;52.588;22.472;2022-11-20T00:10:39;100299.39;;;-7.58;90.43
34034;BME280;63481;52.588;22.472;2022-11-20T00:11:13;100299.92;;;-7.60;90.44
34034;BME280;63481;52.588;22.472;2022-11-20T00:11:45;100301.50;;;-7.58;90.42
34034;BME280;63481;52.588;22.472;2022-11-20T00:12:17;100307.23;;;-7.60;90.41
34034;BME280;63481;52.588;22.472;2022-11-20T00:12:49;100302.52;;;-7.60;90.40
34034;BME280;63481;52.588;22.472;2022-11-20T00:13:20;100310.38;;;-7.62;90.40
34034;BME280;63481;52.588;22.472;2022-11-20T00:13:55;100309.09;;;-7.62;90.39
34034;BME280;63481;52.588;22.472;2022-11-20T00:14:28;100307.41;;;-7.63;90.39
34034;BME280;63481;52.588;22.472;2022-11-20T00:15:00;100313.05;;;-7.63;90.39
34034;BME280;63481;52.588;22.472;2022-11-20T00:15:32;100313.88;;;-7.63;90.40
34034;BME280;63481;52.588;22.472;2022-11-20T00:16:06;100306.11;;;-7.63;90.40
34034;BME280;63481;52.588;22.472;2022-11-20T00:16:38;100312.59;;;-7.63;90.41
34034;BME280;63481;52.588;22.472;2022-11-20T00:17:10;100307.80;;;-7.62;90.42
34034;BME280;63481;52.588;22.472;2022-11-20T00:17:41;100304.75;;;-7.61;90.42
34034;BME280;63481;52.588;22.472;2022-11-20T00:18:13;100308.25;;;-7.62;90.41
34034;BME280;63481;52.588;22.472;2022-11-20T00:18:46;100306.95;;;-7.62;90.38
34034;BME280;63481;52.588;22.472;2022-11-20T00:19:18;100311.30;;;-7.63;90.37
34034;BME280;63481;52.588;22.472;2022-11-20T00:19:49;100307.80;;;-7.62;90.39
34034;BME280;63481;52.588;22.472;2022-11-20T00:20:21;100303.45;;;-7.61;90.38
34034;BME280;63481;52.588;22.472;2022-11-20T00:20:54;100303.45;;;-7.61;90.36
34034;BME280;63481;52.588;22.472;2022-11-20T00:21:28;100301.32;;;-7.62;90.37
34034;BME280;63481;52.588;22.472;2022-11-20T00:22:01;100303.91;;;-7.62;90.33
34034;BME280;63481;52.588;22.472;2022-11-20T00:22:33;100303.34;;;-7.60;90.34
34034;BME280;63481;52.588;22.472;2022-11-20T00:23:04;100306.78;;;-7.59;90.32
34034;BME280;63481;52.588;22.472;2022-11-20T00:23:38;100302.23;;;-7.63;90.30
34034;BME280;63481;52.588;22.472;2022-11-20T00:24:09;100304.92;;;-7.64;90.29
34034;BME280;63481;52.588;22.472;2022-11-20T00:24:43;100307.23;;;-7.67;90.29
34034;BME280;63481;52.588;22.472;2022-11-20T00:25:15;100306.47;;;-7.69;90.29
34034;BME280;63481;52.588;22.472;2022-11-20T00:25:47;100306.02;;;-7.68;90.30
34034;BME280;63481;52.588;22.472;2022-11-20T00:26:20;100303.35;;;-7.67;90.29
34034;BME280;63481;52.588;22.472;2022-11-20T00:26:52;100306.95;;;-7.69;90.31
34034;BME280;63481;52.588;22.472;2022-11-20T00:27:24;100299.92;;;-7.67;90.29
34034;BME280;63481;52.588;22.472;2022-11-20T00:27:55;100299.02;;;-7.66;90.28
34034;BME280;63481;52.588;22.472;2022-11-20T00:28:27;100300.31;;;-7.66;90.29
34034;BME280;63481;52.588;22.472;2022-11-20T00:29:00;100298.00;;;-7.64;90.27
34034;BME280;63481;52.588;22.472;2022-11-20T00:29:32;100302.69;;;-7.63;90.27
34034;BME280;63481;52.588;22.472;2022-11-20T00:30:05;100305.94;;;-7.67;90.25
34034;BME280;63481;52.588;22.472;2022-11-20T00:30:37;100298.53;;;-7.66;90.25
34034;BME280;63481;52.588;22.472;2022-11-20T00:31:14;100303.81;;;-7.67;90.24
34034;BME280;63481;52.588;22.472;2022-11-20T00:31:46;100305.77;;;-7.64;90.21
34034;BME280;63481;52.588;22.472;2022-11-20T00:32:18;100307.06;;;-7.64;90.21
34034;BME280;63481;52.588;22.472;2022-11-20T00:32:49;100304.27;;;-7.68;90.18
34034;BME280;63481;52.588;22.472;2022-11-20T00:33:21;100304.37;;;-7.69;90.16
34034;BME280;63481;52.588;22.472;2022-11-20T00:33:53;100301.95;;;-7.72;90.16
34034;BME280;63481;52.588;22.472;2022-11-20T00:34:25;100297.80;;;-7.75;90.17
34034;BME280;63481;52.588;22.472;2022-11-20T00:34:56;100300.73;;;-7.74;90.15
34034;BME280;63481;52.588;22.472;2022-11-20T00:35:28;100298.91;;;-7.72;90.16
34034;BME280;63481;52.588;22.472;2022-11-20T00:36:07;100303.25;;;-7.72;90.16
34034;BME280;63481;52.588;22.472;2022-11-20T00:36:35;100293.80;;;-7.73;90.16
34034;BME280;63481;52.588;22.472;2022-11-20T00:37:07;100304.80;;;-7.77;90.14
34034;BME280;63481;52.588;22.472;2022-11-20T00:37:39;100303.05;;;-7.76;90.11
34034;BME280;63481;52.588;22.472;2022-11-20T00:38:11;100298.14;;;-7.74;90.14
34034;BME280;63481;52.588;22.472;2022-11-20T00:38:43;100295.20;;;-7.75;90.12
34034;BME280;63481;52.588;22.472;2022-11-20T00:39:15;100297.69;;;-7.80;90.12
34034;BME280;63481;52.588;22.472;2022-11-20T00:39:46;100296.39;;;-7.80;90.12
34034;BME280;63481;52.588;22.472;2022-11-20T00:40:18;100297.23;;;-7.80;90.15
34034;BME280;63481;52.588;22.472;2022-11-20T00:40:58;100292.86;;;-7.79;90.17
34034;BME280;63481;52.588;22.472;2022-11-20T00:41:30;100291.22;;;-7.80;90.16
34034;BME280;63481;52.588;22.472;2022-11-20T00:42:02;100293.88;;;-7.82;90.19
34034;BME280;63481;52.588;22.472;2022-11-20T00:42:34;100293.35;;;-7.80;90.20
34034;BME280;63481;52.588;22.472;2022-11-20T00:43:06;100293.88;;;-7.82;90.20
34034;BME280;63481;52.588;22.472;2022-11-20T00:43:38;100292.30;;;-7.85;90.19
34034;BME280;63481;52.588;22.472;2022-11-20T00:44:10;100289.72;;;-7.85;90.22
34034;BME280;63481;52.588;22.472;2022-11-20T00:44:41;100289.82;;;-7.86;90.25
34034;BME280;63481;52.588;22.472;2022-11-20T00:45:13;100294.16;;;-7.87;90.25
34034;BME280;63481;52.588;22.472;2022-11-20T00:45:45;100287.23;;;-7.86;90.27
34034;BME280;63481;52.588;22.472;2022-11-20T00:46:18;100290.38;;;-7.88;90.29
34034;BME280;63481;52.588;22.472;2022-11-20T00:46:50;100288.25;;;-7.89;90.29
34034;BME280;63481;52.588;22.472;2022-11-20T00:47:22;100290.55;;;-7.91;90.29
34034;BME280;63481;52.588;22.472;2022-11-20T00:47:53;100290.55;;;-7.91;90.32
34034;BME280;63481;52.588;22.472;2022-11-20T00:48:26;100289.61;;;-7.90;90.34
34034;BME280;63481;52.588;22.472;2022-11-20T00:48:58;100282.30;;;-7.91;90.36
34034;BME280;63481;52.588;22.472;2022-11-20T00:49:30;100287.02;;;-7.90;90.35
34034;BME280;63481;52.588;22.472;2022-11-20T00:50:01;100283.91;;;-7.88;90.38
34034;BME280;63481;52.588;22.472;2022-11-20T00:50:33;100283.14;;;-7.90;90.38
34034;BME280;63481;52.588;22.472;2022-11-20T00:51:05;100285.83;;;-7.92;90.37
34034;BME280;63481;52.588;22.472;2022-11-20T00:51:37;100281.84;;;-7.90;90.38
34034;BME280;63481;52.588;22.472;2022-11-20T00:52:09;100280.38;;;-7.87;90.39
34034;BME280;63481;52.588;22.472;2022-11-20T00:52:41;100279.09;;;-7.87;90.39
34034;BME280;63481;52.588;22.472;2022-11-20T00:53:13;100279.64;;;-7.89;90.40
34034;BME280;63481;52.588;22.472;2022-11-20T00:53:45;100270.97;;;-7.88;90.39
34034;BME280;63481;52.588;22.472;2022-11-20T00:54:17;100280.20;;;-7.91;90.37
34034;BME280;63481;52.588;22.472;2022-11-20T00:54:49;100275.83;;;-7.91;90.37
34034;BME280;63481;52.588;22.472;2022-11-20T00:55:21;100273.73;;;-7.91;90.38
34034;BME280;63481;52.588;22.472;2022-11-20T00:56:05;100272.44;;;-7.91;90.38
34034;BME280;63481;52.588;22.472;2022-11-20T00:56:33;100270.38;;;-7.93;90.37
34034;BME280;63481;52.588;22.472;2022-11-20T00:57:05;100273.35;;;-7.92;90.37
34034;BME280;63481;52.588;22.472;2022-11-20T00:57:37;100271.42;;;-7.89;90.38
34034;BME280;63481;52.588;22.472;2022-11-20T00:58:09;100267.62;;;-7.90;90.39
34034;BME280;63481;52.588;22.472;2022-11-20T00:58:42;100268.00;;;-7.89;90.38
34034;BME280;63481;52.588;22.472;2022-11-20T00:59:14;100274.02;;;-7.89;90.38
34034;BME280;63481;52.588;22.472;2022-11-20T00:59:46;100278.34;;;-7.89;90.39
34034;BME280;63481;52.588;22.472;2022-11-20T01:00:18;100276.67;;;-7.90;90.37
34034;BME280;63481;52.588;22.472;2022-11-20T01:00:50;100271.14;;;-7.91;90.38
34034;BME280;63481;52.588;22.472;2022-11-20T01:01:24;100274.54;;;-7.91;90.37
34034;BME280;63481;52.588;22.472;2022-11-20T01:01:56;100276.14;;;-7.88;90.40
34034;BME280;63481;52.588;22.472;2022-11-20T01:02:28;100273.56;;;-7.88;90.39
34034;BME280;63481;52.588;22.472;2022-11-20T01:03:00;100272.27;;;-7.88;90.40
34034;BME280;63481;52.588;22.472;2022-11-20T01:03:33;100272.72;;;-7.89;90.40
34034;BME280;63481;52.588;22.472;2022-11-20T01:04:05;100275.59;;;-7.86;90.39
34034;BME280;63481;52.588;22.472;2022-11-20T01:04:37;100270.59;;;-7.89;90.35
34034;BME280;63481;52.588;22.472;2022-11-20T01:05:09;100272.72;;;-7.89;90.36
34034;BME280;63481;52.588;22.472;2022-11-20T01:05:41;100277.05;;;-7.89;90.34
34034;BME280;63481;52.588;22.472;2022-11-20T01:06:47;100280.20;;;-7.91;90.34
34034;BME280;63481;52.588;22.472;2022-11-20T01:07:19;100278.80;;;-7.90;90.33
34034;BME280;63481;52.588;22.472;2022-11-20T01:07:51;100284.89;;;-7.91;90.33
34034;BME280;63481;52.588;22.472;2022-11-20T01:08:23;100279.36;;;-7.92;90.32
34034;BME280;63481;52.588;22.472;2022-11-20T01:08:56;100281.78;;;-7.89;90.33
34034;BME280;63481;52.588;22.472;2022-11-20T01:09:28;100279.82;;;-7.85;90.34
34034;BME280;63481;52.588;22.472;2022-11-20T01:10:00;100277.44;;;-7.81;90.35
34034;BME280;63481;52.588;22.472;2022-11-20T01:10:32;100280.94;;;-7.82;90.32
34034;BME280;63481;52.588;22.472;2022-11-20T01:11:16;100276.32;;;-7.84;90.30
34034;BME280;63481;52.588;22.472;2022-11-20T01:11:48;100277.72;;;-7.86;90.28
34034;BME280;63481;52.588;22.472;2022-11-20T01:12:20;100268.00;;;-7.89;90.24
34034;BME280;63481;52.588;22.472;2022-11-20T01:12:52;100265.69;;;-7.87;90.24
34034;BME280;63481;52.588;22.472;2022-11-20T01:13:25;100271.14;;;-7.84;90.25
34034;BME280;63481;52.588;22.472;2022-11-20T01:14:13;100272.05;;;-7.85;90.23
34034;BME280;63481;52.588;22.472;2022-11-20T01:14:44;100278.34;;;-7.82;90.23
34034;BME280;63481;52.588;22.472;2022-11-20T01:15:16;100270.59;;;-7.82;90.22
34034;BME280;63481;52.588;22.472;2022-11-20T01:15:48;100265.59;;;-7.85;90.19
34034;BME280;63481;52.588;22.472;2022-11-20T01:16:23;100268.66;;;-7.86;90.18
34034;BME280;63481;52.588;22.472;2022-11-20T01:16:55;100267.09;;;-7.88;90.15
34034;BME280;63481;52.588;22.472;2022-11-20T01:17:27;100266.78;;;-7.91;90.12
34034;BME280;63481;52.588;22.472;2022-11-20T01:17:59;100266.33;;;-7.90;90.11
34034;BME280;63481;52.588;22.472;2022-11-20T01:18:31;100270.20;;;-7.90;90.11
34034;BME280;63481;52.588;22.472;2022-11-20T01:19:05;100272.79;;;-7.90;90.11
34034;BME280;63481;52.588;22.472;2022-11-20T01:19:37;100266.33;;;-7.90;90.11
34034;BME280;63481;52.588;22.472;2022-11-20T01:21:14;100270.03;;;-7.94;90.10
34034;BME280;63481;52.588;22.472;2022-11-20T01:21:50;100269.58;;;-7.94;90.10
34034;BME280;63481;52.588;22.472;2022-11-20T01:22:21;100265.38;;;-7.96;90.11
34034;BME280;63481;52.588;22.472;2022-11-20T01:22:53;100270.55;;;-7.96;90.09
34034;BME280;63481;52.588;22.472;2022-11-20T01:23:25;100270.09;;;-7.96;90.10
34034;BME280;63481;52.588;22.472;2022-11-20T01:23:58;100276.84;;;-7.93;90.11
34034;BME280;63481;52.588;22.472;2022-11-20T01:24:29;100270.30;;;-7.92;90.12
34034;BME280;63481;52.588;22.472;2022-11-20T01:25:01;100269.47;;;-7.92;90.13
34034;BME280;63481;52.588;22.472;2022-11-20T01:25:34;100266.67;;;-7.96;90.12
34034;BME280;63481;52.588;22.472;2022-11-20T01:26:09;100263.56;;;-7.94;90.12
34034;BME280;63481;52.588;22.472;2022-11-20T01:26:42;100266.50;;;-7.93;90.15
34034;BME280;63481;52.588;22.472;2022-11-20T01:27:14;100265.59;;;-7.92;90.15
34034;BME280;63481;52.588;22.472;2022-11-20T01:27:45;100264.75;;;-7.93;90.16
34034;BME280;63481;52.588;22.472;2022-11-20T01:28:17;100262.44;;;-7.90;90.14
34034;BME280;63481;52.588;22.472;2022-11-20T01:28:49;100259.58;;;-7.93;90.14
34034;BME280;63481;52.588;22.472;2022-11-20T01:29:24;100265.59;;;-7.92;90.15
34034;BME280;63481;52.588;22.472;2022-11-20T01:29:56;100266.42;;;-7.92;90.14
34034;BME280;63481;52.588;22.472;2022-11-20T01:30:28;100268.45;;;-7.90;90.14
34034;BME280;63481;52.588;22.472;2022-11-20T01:31:00;100263.20;;;-7.88;90.13
34034;BME280;63481;52.588;22.472;2022-11-20T01:31:34;100266.98;;;-7.87;90.14
34034;BME280;63481;52.588;22.472;2022-11-20T01:32:06;100262.65;;;-7.86;90.13
34034;BME280;63481;52.588;22.472;2022-11-20T01:32:37;100267.55;;;-7.89;90.11
34034;BME280;63481;52.588;22.472;2022-11-20T01:33:09;100270.30;;;-7.92;90.10
34034;BME280;63481;52.588;22.472;2022-11-20T01:33:41;100271.67;;;-7.93;90.08
34034;BME280;63481;52.588;22.472;2022-11-20T01:34:15;100265.77;;;-7.95;90.07
34034;BME280;63481;52.588;22.472;2022-11-20T01:34:47;100268.52;;;-7.98;90.08
34034;BME280;63481;52.588;22.472;2022-11-20T01:35:19;100272.41;;;-7.98;90.04
34034;BME280;63481;52.588;22.472;2022-11-20T01:35:51;100267.61;;;-7.97;90.08
34034;BME280;63481;52.588;22.472;2022-11-20T01:36:25;100268.73;;;-7.94;90.08
34034;BME280;63481;52.588;22.472;2022-11-20T01:36:57;100265.59;;;-7.92;90.11
34034;BME280;63481;52.588;22.472;2022-11-20T01:37:28;100270.03;;;-7.94;90.11
34034;BME280;63481;52.588;22.472;2022-11-20T01:38:00;100271.22;;;-7.93;90.10
34034;BME280;63481;52.588;22.472;2022-11-20T01:38:32;100272.61;;;-7.94;90.10
34034;BME280;63481;52.588;22.472;2022-11-20T01:39:06;100274.81;;;-7.95;90.08
34034;BME280;63481;52.588;22.472;2022-11-20T01:39:38;100272.69;;;-7.96;90.07
34034;BME280;63481;52.588;22.472;2022-11-20T01:40:11;100277.33;;;-7.94;90.10
34034;BME280;63481;52.588;22.472;2022-11-20T01:40:42;100273.35;;;-7.92;90.11
34034;BME280;63481;52.588;22.472;2022-11-20T01:41:15;100273.63;;;-7.90;90.11
34034;BME280;63481;52.588;22.472;2022-11-20T01:42:05;100271.50;;;-7.90;90.08
34034;BME280;63481;52.588;22.472;2022-11-20T01:43:06;100266.70;;;-7.89;90.08
34034;BME280;63481;52.588;22.472;2022-11-20T01:43:51;100265.41;;;-7.89;90.09
34034;BME280;63481;52.588;22.472;2022-11-20T01:44:48;100267.44;;;-7.87;90.06
34034;BME280;63481;52.588;22.472;2022-11-20T01:46:21;100266.53;;;-7.86;90.02
34034;BME280;63481;52.588;22.472;2022-11-20T01:47:01;100266.42;;;-7.85;89.98
34034;BME280;63481;52.588;22.472;2022-11-20T01:47:44;100275.48;;;-7.85;89.97
34034;BME280;63481;52.588;22.472;2022-11-20T01:48:18;100264.78;;;-7.86;89.96
34034;BME280;63481;52.588;22.472;2022-11-20T01:49:00;100273.45;;;-7.87;89.95
34034;BME280;63481;52.588;22.472;2022-11-20T01:49:36;100271.14;;;-7.84;89.95
34034;BME280;63481;52.588;22.472;2022-11-20T01:50:17;100270.23;;;-7.83;89.92
34034;BME280;63481;52.588;22.472;2022-11-20T01:50:50;100268.84;;;-7.81;89.91
34034;BME280;63481;52.588;22.472;2022-11-20T01:51:35;100272.65;;;-7.80;89.92
34034;BME280;63481;52.588;22.472;2022-11-20T01:52:18;100264.67;;;-7.84;89.90
34034;BME280;63481;52.588;22.472;2022-11-20T01:52:59;100275.69;;;-7.80;89.88
34034;BME280;63481;52.588;22.472;2022-11-20T01:53:34;100271.53;;;-7.83;89.87
34034;BME280;63481;52.588;22.472;2022-11-20T01:54:09;100274.47;;;-7.82;89.86
34034;BME280;63481;52.588;22.472;2022-11-20T01:54:51;100272.27;;;-7.81;89.85
34034;BME280;63481;52.588;22.472;2022-11-20T01:55:22;100274.75;;;-7.79;89.84
34034;BME280;63481;52.588;22.472;2022-11-20T01:55:57;100269.39;;;-7.76;89.85
34034;BME280;63481;52.588;22.472;2022-11-20T01:56:31;100274.22;;;-7.77;89.83
34034;BME280;63481;52.588;22.472;2022-11-20T01:57:06;100273.56;;;-7.81;89.80
34034;BME280;63481;52.588;22.472;2022-11-20T01:57:40;100274.47;;;-7.82;89.79
34034;BME280;63481;52.588;22.472;2022-11-20T01:58:12;100272.89;;;-7.85;89.77
34034;BME280;63481;52.588;22.472;2022-11-20T01:58:55;100269.95;;;-7.86;89.78
34034;BME280;63481;52.588;22.472;2022-11-20T01:59:24;100274.64;;;-7.85;89.79
34034;BME280;63481;52.588;22.472;2022-11-20T02:00:09;100268.84;;;-7.81;89.80
34034;BME280;63481;52.588;22.472;2022-11-20T02:00:44;100270.97;;;-7.81;89.79
34034;BME280;63481;52.588;22.472;2022-11-20T02:01:15;100274.85;;;-7.81;89.78
34034;BME280;63481;52.588;22.472;2022-11-20T02:01:47;100276.14;;;-7.81;89.78
34034;BME280;63481;52.588;22.472;2022-11-20T02:02:20;100272.34;;;-7.82;89.75
34034;BME280;63481;52.588;22.472;2022-11-20T02:02:56;100267.65;;;-7.83;89.75
34034;BME280;63481;52.588;22.472;2022-11-20T02:03:27;100269.39;;;-7.83;89.76
34034;BME280;63481;52.588;22.472;2022-11-20T02:04:00;100274.30;;;-7.79;89.75
34034;BME280;63481;52.588;22.472;2022-11-20T02:04:32;100268.20;;;-7.78;89.75
34034;BME280;63481;52.588;22.472;2022-11-20T02:05:14;100269.50;;;-7.78;89.73
34034;BME280;63481;52.588;22.472;2022-11-20T02:05:51;100269.95;;;-7.78;89.73
34034;BME280;63481;52.588;22.472;2022-11-20T02:06:31;100269.12;;;-7.79;89.70
34034;BME280;63481;52.588;22.472;2022-11-20T02:07:04;100269.95;;;-7.78;89.70
34034;BME280;63481;52.588;22.472;2022-11-20T02:07:37;100273.38;;;-7.78;89.70
34034;BME280;63481;52.588;22.472;2022-11-20T02:08:09;100270.69;;;-7.76;89.67
34034;BME280;63481;52.588;22.472;2022-11-20T02:08:41;100265.52;;;-7.76;89.67
34034;BME280;63481;52.588;22.472;2022-11-20T02:09:14;100267.83;;;-7.79;89.66
34034;BME280;63481;52.588;22.472;2022-11-20T02:09:45;100269.50;;;-7.78;89.66
34034;BME280;63481;52.588;22.472;2022-11-20T02:10:17;100269.58;;;-7.79;89.66
34034;BME280;63481;52.588;22.472;2022-11-20T02:10:48;100266.53;;;-7.79;89.69
34034;BME280;63481;52.588;22.472;2022-11-20T02:11:20;100271.14;;;-7.77;89.66
34034;BME280;63481;52.588;22.472;2022-11-20T02:11:53;100269.85;;;-7.77;89.68
34034;BME280;63481;52.588;22.472;2022-11-20T02:12:25;100270.69;;;-7.76;89.67
34034;BME280;63481;52.588;22.472;2022-11-20T02:13:15;100265.34;;;-7.73;89.66
34034;BME280;63481;52.588;22.472;2022-11-20T02:14:06;100268.38;;;-7.74;89.66
34034;BME280;63481;52.588;22.472;2022-11-20T02:14:38;100265.89;;;-7.75;89.64
34034;BME280;63481;52.588;22.472;2022-11-20T02:15:10;100266.35;;;-7.76;89.66
34034;BME280;63481;52.588;22.472;2022-11-20T02:15:42;100266.35;;;-7.76;89.63
34034;BME280;63481;52.588;22.472;2022-11-20T02:16:19;100265.97;;;-7.77;89.64
34034;BME280;63481;52.588;22.472;2022-11-20T02:16:50;100259.50;;;-7.77;89.64
34034;BME280;63481;52.588;22.472;2022-11-20T02:17:23;100259.15;;;-7.78;89.64
34034;BME280;63481;52.588;22.472;2022-11-20T02:17:55;100258.59;;;-7.76;89.67
34034;BME280;63481;52.588;22.472;2022-11-20T02:18:26;100258.97;;;-7.75;89.66
34034;BME280;63481;52.588;22.472;2022-11-20T02:19:00;100256.20;;;-7.72;89.63
34034;BME280;63481;52.588;22.472;2022-11-20T02:19:33;100261.37;;;-7.72;89.64
34034;BME280;63481;52.588;22.472;2022-11-20T02:20:06;100260.09;;;-7.72;89.61
34034;BME280;63481;52.588;22.472;2022-11-20T02:20:41;100260.61;;;-7.74;89.58
34034;BME280;63481;52.588;22.472;2022-11-20T02:22:00;100267.09;;;-7.74;89.58
34034;BME280;63481;52.588;22.472;2022-11-20T02:22:33;100263.69;;;-7.74;89.57
34034;BME280;63481;52.588;22.472;2022-11-20T02:24:04;100258.59;;;-7.76;89.56
34034;BME280;63481;52.588;22.472;2022-11-20T02:24:37;100256.73;;;-7.74;89.56
34034;BME280;63481;52.588;22.472;2022-11-20T02:25:10;100254.98;;;-7.73;89.56
34034;BME280;63481;52.588;22.472;2022-11-20T02:25:42;100256.91;;;-7.77;89.55
34034;BME280;63481;52.588;22.472;2022-11-20T02:26:15;100254.53;;;-7.80;89.54
34034;BME280;63481;52.588;22.472;2022-11-20T02:26:53;100252.47;;;-7.82;89.55
34034;BME280;63481;52.588;22.472;2022-11-20T02:27:26;100255.34;;;-7.79;89.56
34034;BME280;63481;52.588;22.472;2022-11-20T02:27:58;100254.05;;;-7.79;89.59
34034;BME280;63481;52.588;22.472;2022-11-20T02:28:30;100254.53;;;-7.80;89.58
34034;BME280;63481;52.588;22.472;2022-11-20T02:29:02;100255.72;;;-7.78;89.60
34034;BME280;63481;52.588;22.472;2022-11-20T02:29:44;100257.47;;;-7.79;89.62
34034;BME280;63481;52.588;22.472;2022-11-20T02:30:16;100250.65;;;-7.80;89.60
34034;BME280;63481;52.588;22.472;2022-11-20T02:30:48;100251.00;;;-7.79;89.61
34034;BME280;63481;52.588;22.472;2022-11-20T02:31:19;100250.55;;;-7.78;89.60
34034;BME280;63481;52.588;22.472;2022-11-20T02:31:52;100259.50;;;-7.77;89.61
34034;BME280;63481;52.588;22.472;2022-11-20T02:32:34;100251.55;;;-7.74;89.60
34034;BME280;63481;52.588;22.472;2022-11-20T02:33:02;100251.66;;;-7.75;89.57
34034;BME280;63481;52.588;22.472;2022-11-20T02:33:34;100248.62;;;-7.75;89.55
34034;BME280;63481;52.588;22.472;2022-11-20T02:34:05;100252.67;;;-7.78;89.55
34034;BME280;63481;52.588;22.472;2022-11-20T02:34:37;100252.30;;;-7.79;89.57
34034;BME280;63481;52.588;22.472;2022-11-20T02:35:53;100259.32;;;-7.74;89.62
34034;BME280;63481;52.588;22.472;2022-11-20T02:36:26;100256.20;;;-7.72;89.60
34034;BME280;63481;52.588;22.472;2022-11-20T02:36:59;100245.29;;;-7.70;89.59
34034;BME280;63481;52.588;22.472;2022-11-20T02:37:33;100258.05;;;-7.67;89.58
34034;BME280;63481;52.588;22.472;2022-11-20T02:38:06;100250.56;;;-7.64;89.56
34034;BME280;63481;52.588;22.472;2022-11-20T02:38:38;100254.45;;;-7.64;89.52
34034;BME280;63481;52.588;22.472;2022-11-20T02:39:11;100248.89;;;-7.65;89.50
34034;BME280;63481;52.588;22.472;2022-11-20T02:39:45;100249.17;;;-7.70;89.49
34034;BME280;63481;52.588;22.472;2022-11-20T02:40:17;100252.60;;;-7.69;89.49
34034;BME280;63481;52.588;22.472;2022-11-20T02:40:48;100256.30;;;-7.66;89.52
34034;BME280;63481;52.588;22.472;2022-11-20T02:41:20;100260.92;;;-7.64;89.49
34034;BME280;63481;52.588;22.472;2022-11-20T02:41:55;100252.20;;;-7.63;89.51
34034;BME280;63481;52.588;22.472;2022-11-20T02:42:27;100250.00;;;-7.62;89.47
34034;BME280;63481;52.588;22.472;2022-11-20T02:42:58;100257.20;;;-7.60;89.49
34034;BME280;63481;52.588;22.472;2022-11-20T02:43:30;100257.31;;;-7.62;89.46
34034;BME280;63481;52.588;22.472;2022-11-20T02:44:02;100257.31;;;-7.62;89.46
34034;BME280;63481;52.588;22.472;2022-11-20T02:44:34;100256.47;;;-7.62;89.47
34034;BME280;63481;52.588;22.472;2022-11-20T02:45:07;100256.75;;;-7.60;89.46
34034;BME280;63481;52.588;22.472;2022-11-20T02:45:39;100257.03;;;-7.57;89.46
34034;BME280;63481;52.588;22.472;2022-11-20T02:46:10;100257.30;;;-7.55;89.47
34034;BME280;63481;52.588;22.472;2022-11-20T02:46:42;100263.87;;;-7.56;89.44
34034;BME280;63481;52.588;22.472;2022-11-20T02:47:13;100263.87;;;-7.56;89.43
34034;BME280;63481;52.588;22.472;2022-11-20T02:47:45;100259.89;;;-7.55;89.44
34034;BME280;63481;52.588;22.472;2022-11-20T02:48:16;100263.87;;;-7.56;89.44
34034;BME280;63481;52.588;22.472;2022-11-20T02:48:48;100263.42;;;-7.56;89.44
34034;BME280;63481;52.588;22.472;2022-11-20T02:49:19;100262.48;;;-7.55;89.47
34034;BME280;63481;52.588;22.472;2022-11-20T02:49:51;100271.47;;;-7.53;89.46
34034;BME280;63481;52.588;22.472;2022-11-20T02:50:23;100263.59;;;-7.52;89.44
34034;BME280;63481;52.588;22.472;2022-11-20T02:50:54;100260.45;;;-7.50;89.44
34034;BME280;63481;52.588;22.472;2022-11-20T02:51:26;100257.50;;;-7.51;89.41
34034;BME280;63481;52.588;22.472;2022-11-20T02:51:57;100260.66;;;-7.53;89.38
34034;BME280;63481;52.588;22.472;2022-11-20T02:52:28;100263.70;;;-7.53;89.38
34034;BME280;63481;52.588;22.472;2022-11-20T02:53:01;100264.05;;;-7.52;89.37
34034;BME280;63481;52.588;22.472;2022-11-20T02:53:32;100261.73;;;-7.50;89.35
34034;BME280;63481;52.588;22.472;2022-11-20T02:54:04;100259.53;;;-7.49;89.34
34034;BME280;63481;52.588;22.472;2022-11-20T02:54:36;100265.09;;;-7.48;89.38
34034;BME280;63481;52.588;22.472;2022-11-20T02:55:08;100263.23;;;-7.46;89.35
34034;BME280;63481;52.588;22.472;2022-11-20T02:55:40;100263.23;;;-7.46;89.35
34034;BME280;63481;52.588;22.472;2022-11-20T02:56:11;100262.85;;;-7.47;89.34
34034;BME280;63481;52.588;22.472;2022-11-20T02:56:43;100267.85;;;-7.44;89.31
34034;BME280;63481;52.588;22.472;2022-11-20T02:57:15;100263.05;;;-7.43;89.30